sensor_id;sensor_type;location;lat;lon;timestamp;P1;durP1;ratioP1;P2;durP2;ratioP2
68942;SDS011;60852;52.190;4.422;2023-06-10T00:02:20;7.58;;;7.58;;
68942;SDS011;60852;52.190;4.422;2023-06-10T00:04:46;7.59;;;7.58;;
68942;SDS011;60852;52.190;4.422;2023-06-10T00:07:11;7.46;;;7.46;;
68942;SDS011;60852;52.190;4.422;2023-06-10T00:09:38;7.40;;;7.40;;
68942;SDS011;60852;52.190;4.422;2023-06-10T00:12:06;7.56;;;7.56;;
68942;SDS011;60852;52.190;4.422;2023-06-10T00:14:36;7.70;;;7.70;;
68942;SDS011;60852;52.190;4.422;2023-06-10T00:17:03;7.23;;;7.23;;
68942;SDS011;60852;52.190;4.422;2023-06-10T00:19:29;7.45;;;7.45;;
68942;SDS011;60852;52.190;4.422;2023-06-10T00:21:58;7.12;;;7.12;;
68942;SDS011;60852;52.190;4.422;2023-06-10T00:24:24;7.20;;;7.20;;
68942;SDS011;60852;52.190;4.422;2023-06-10T00:26:50;7.11;;;7.10;;
68942;SDS011;60852;52.190;4.422;2023-06-10T00:29:15;7.41;;;7.41;;
68942;SDS011;60852;52.190;4.422;2023-06-10T00:31:41;7.35;;;7.35;;
68942;SDS011;60852;52.190;4.422;2023-06-10T00:34:07;7.32;;;7.32;;
68942;SDS011;60852;52.190;4.422;2023-06-10T00:36:33;7.41;;;7.41;;
68942;SDS011;60852;52.190;4.422;2023-06-10T00:38:58;7.41;;;7.35;;
68942;SDS011;60852;52.190;4.422;2023-06-10T00:41:24;7.28;;;7.24;;
68942;SDS011;60852;52.190;4.422;2023-06-10T00:43:51;7.25;;;7.25;;
68942;SDS011;60852;52.190;4.422;2023-06-10T00:46:17;7.45;;;7.45;;
68942;SDS011;60852;52.190;4.422;2023-06-10T00:48:44;7.71;;;7.71;;
68942;SDS011;60852;52.190;4.422;2023-06-10T00:51:10;6.93;;;6.93;;
68942;SDS011;60852;52.190;4.422;2023-06-10T00:53:37;7.41;;;7.33;;
68942;SDS011;60852;52.190;4.422;2023-06-10T00:56:05;7.44;;;7.44;;
68942;SDS011;60852;52.190;4.422;2023-06-10T00:58:31;7.59;;;7.59;;
68942;SDS011;60852;52.190;4.422;2023-06-10T01:00:57;7.54;;;7.54;;
68942;SDS011;60852;52.190;4.422;2023-06-10T01:03:23;7.34;;;7.34;;
68942;SDS011;60852;52.190;4.422;2023-06-10T01:05:50;7.09;;;7.08;;
68942;SDS011;60852;52.190;4.422;2023-06-10T01:10:55;7.66;;;7.55;;
68942;SDS011;60852;52.190;4.422;2023-06-10T01:13:25;7.67;;;7.64;;
68942;SDS011;60852;52.190;4.422;2023-06-10T01:15:57;6.84;;;6.84;;
68942;SDS011;60852;52.190;4.422;2023-06-10T01:18:29;7.41;;;7.41;;
68942;SDS011;60852;52.190;4.422;2023-06-10T01:20:56;7.69;;;7.69;;
68942;SDS011;60852;52.190;4.422;2023-06-10T01:23:22;7.22;;;7.22;;
68942;SDS011;60852;52.190;4.422;2023-06-10T01:26:00;7.20;;;7.20;;
68942;SDS011;60852;52.190;4.422;2023-06-10T01:28:38;7.50;;;7.45;;
68942;SDS011;60852;52.190;4.422;2023-06-10T01:31:36;7.32;;;7.21;;
68942;SDS011;60852;52.190;4.422;2023-06-10T01:34:17;6.90;;;6.89;;
68942;SDS011;60852;52.190;4.422;2023-06-10T01:36:45;7.39;;;7.39;;
68942;SDS011;60852;52.190;4.422;2023-06-10T01:39:14;7.40;;;7.40;;
68942;SDS011;60852;52.190;4.422;2023-06-10T01:41:41;6.84;;;6.80;;
68942;SDS011;60852;52.190;4.422;2023-06-10T01:44:08;7.18;;;7.15;;
68942;SDS011;60852;52.190;4.422;2023-06-10T01:46:34;6.98;;;6.97;;
68942;SDS011;60852;52.190;4.422;2023-06-10T01:49:00;6.95;;;6.95;;
68942;SDS011;60852;52.190;4.422;2023-06-10T01:51:26;7.24;;;7.24;;
68942;SDS011;60852;52.190;4.422;2023-06-10T01:53:51;6.94;;;6.91;;
68942;SDS011;60852;52.190;4.422;2023-06-10T01:56:17;7.06;;;7.06;;
68942;SDS011;60852;52.190;4.422;2023-06-10T01:58:44;7.03;;;7.03;;
68942;SDS011;60852;52.190;4.422;2023-06-10T02:01:11;7.12;;;7.11;;
68942;SDS011;60852;52.190;4.422;2023-06-10T02:03:37;6.69;;;6.69;;
68942;SDS011;60852;52.190;4.422;2023-06-10T02:06:02;6.65;;;6.65;;
68942;SDS011;60852;52.190;4.422;2023-06-10T02:08:28;6.87;;;6.80;;
68942;SDS011;60852;52.190;4.422;2023-06-10T02:10:53;6.92;;;6.86;;
68942;SDS011;60852;52.190;4.422;2023-06-10T02:13:19;7.21;;;7.16;;
68942;SDS011;60852;52.190;4.422;2023-06-10T02:15:44;7.60;;;7.53;;
68942;SDS011;60852;52.190;4.422;2023-06-10T02:18:10;7.29;;;7.25;;
68942;SDS011;60852;52.190;4.422;2023-06-10T02:20:37;7.31;;;7.18;;
68942;SDS011;60852;52.190;4.422;2023-06-10T02:23:03;7.07;;;7.07;;
68942;SDS011;60852;52.190;4.422;2023-06-10T02:25:29;7.30;;;7.21;;
68942;SDS011;60852;52.190;4.422;2023-06-10T02:27:54;7.08;;;7.00;;
68942;SDS011;60852;52.190;4.422;2023-06-10T02:30:20;6.99;;;6.80;;
68942;SDS011;60852;52.190;4.422;2023-06-10T02:32:46;7.57;;;7.39;;
68942;SDS011;60852;52.190;4.422;2023-06-10T02:35:16;7.10;;;7.04;;
68942;SDS011;60852;52.190;4.422;2023-06-10T02:37:42;7.15;;;7.09;;
68942;SDS011;60852;52.190;4.422;2023-06-10T02:40:08;7.21;;;7.09;;
68942;SDS011;60852;52.190;4.422;2023-06-10T02:42:35;7.29;;;7.11;;
68942;SDS011;60852;52.190;4.422;2023-06-10T02:45:01;7.09;;;6.98;;
68942;SDS011;60852;52.190;4.422;2023-06-10T02:47:26;7.20;;;7.12;;
68942;SDS011;60852;52.190;4.422;2023-06-10T02:49:52;7.59;;;7.41;;
68942;SDS011;60852;52.190;4.422;2023-06-10T02:52:17;7.55;;;7.38;;
68942;SDS011;60852;52.190;4.422;2023-06-10T02:54:43;7.44;;;7.29;;
68942;SDS011;60852;52.190;4.422;2023-06-10T02:57:08;7.38;;;7.24;;
68942;SDS011;60852;52.190;4.422;2023-06-10T02:59:35;7.32;;;7.16;;
68942;SDS011;60852;52.190;4.422;2023-06-10T03:02:01;6.79;;;6.79;;
68942;SDS011;60852;52.190;4.422;2023-06-10T03:04:26;7.28;;;7.28;;
68942;SDS011;60852;52.190;4.422;2023-06-10T03:06:54;7.50;;;7.50;;
68942;SDS011;60852;52.190;4.422;2023-06-10T03:09:20;7.76;;;7.76;;
68942;SDS011;60852;52.190;4.422;2023-06-10T03:11:45;7.51;;;7.48;;
68942;SDS011;60852;52.190;4.422;2023-06-10T03:14:11;7.34;;;7.32;;
68942;SDS011;60852;52.190;4.422;2023-06-10T03:16:36;7.62;;;7.60;;
68942;SDS011;60852;52.190;4.422;2023-06-10T03:19:06;7.66;;;7.65;;
68942;SDS011;60852;52.190;4.422;2023-06-10T03:21:32;7.88;;;7.75;;
68942;SDS011;60852;52.190;4.422;2023-06-10T03:23:59;8.28;;;8.02;;
68942;SDS011;60852;52.190;4.422;2023-06-10T03:26:25;7.67;;;7.62;;
68942;SDS011;60852;52.190;4.422;2023-06-10T03:28:52;7.91;;;7.91;;
68942;SDS011;60852;52.190;4.422;2023-06-10T03:31:18;7.80;;;7.80;;
68942;SDS011;60852;52.190;4.422;2023-06-10T03:33:43;7.32;;;7.32;;
68942;SDS011;60852;52.190;4.422;2023-06-10T03:36:09;7.69;;;7.67;;
68942;SDS011;60852;52.190;4.422;2023-06-10T03:38:34;7.87;;;7.73;;
68942;SDS011;60852;52.190;4.422;2023-06-10T03:41:00;8.32;;;8.16;;
68942;SDS011;60852;52.190;4.422;2023-06-10T03:43:26;8.15;;;8.15;;
68942;SDS011;60852;52.190;4.422;2023-06-10T03:45:52;8.03;;;7.97;;
68942;SDS011;60852;52.190;4.422;2023-06-10T03:48:18;7.70;;;7.70;;
68942;SDS011;60852;52.190;4.422;2023-06-10T03:50:43;8.11;;;8.11;;
68942;SDS011;60852;52.190;4.422;2023-06-10T03:53:09;8.33;;;8.31;;
68942;SDS011;60852;52.190;4.422;2023-06-10T03:55:35;8.58;;;8.50;;
68942;SDS011;60852;52.190;4.422;2023-06-10T03:58:02;8.31;;;8.30;;
68942;SDS011;60852;52.190;4.422;2023-06-10T04:00:27;8.23;;;8.22;;
68942;SDS011;60852;52.190;4.422;2023-06-10T04:02:53;8.20;;;8.17;;
68942;SDS011;60852;52.190;4.422;2023-06-10T04:05:23;7.88;;;7.88;;
68942;SDS011;60852;52.190;4.422;2023-06-10T04:07:48;8.48;;;8.48;;
68942;SDS011;60852;52.190;4.422;2023-06-10T04:10:15;8.46;;;8.46;;
68942;SDS011;60852;52.190;4.422;2023-06-10T04:12:41;8.31;;;8.30;;
68942;SDS011;60852;52.190;4.422;2023-06-10T04:15:07;8.13;;;8.13;;
68942;SDS011;60852;52.190;4.422;2023-06-10T04:17:33;8.51;;;8.51;;
68942;SDS011;60852;52.190;4.422;2023-06-10T04:19:59;8.33;;;8.33;;
68942;SDS011;60852;52.190;4.422;2023-06-10T04:22:26;8.43;;;8.43;;
68942;SDS011;60852;52.190;4.422;2023-06-10T04:24:51;8.50;;;8.50;;
68942;SDS011;60852;52.190;4.422;2023-06-10T04:27:17;8.70;;;8.70;;
68942;SDS011;60852;52.190;4.422;2023-06-10T04:29:43;8.31;;;8.31;;
68942;SDS011;60852;52.190;4.422;2023-06-10T04:32:08;8.36;;;8.32;;
68942;SDS011;60852;52.190;4.422;2023-06-10T04:34:34;8.33;;;8.33;;
68942;SDS011;60852;52.190;4.422;2023-06-10T04:36:59;8.16;;;8.16;;
68942;SDS011;60852;52.190;4.422;2023-06-10T04:39:25;8.71;;;8.61;;
68942;SDS011;60852;52.190;4.422;2023-06-10T04:41:51;8.89;;;8.87;;
68942;SDS011;60852;52.190;4.422;2023-06-10T04:44:16;8.51;;;8.43;;
68942;SDS011;60852;52.190;4.422;2023-06-10T04:46:42;8.30;;;8.27;;
68942;SDS011;60852;52.190;4.422;2023-06-10T04:49:07;8.27;;;8.25;;
68942;SDS011;60852;52.190;4.422;2023-06-10T04:51:33;8.45;;;8.32;;
68942;SDS011;60852;52.190;4.422;2023-06-10T04:53:59;8.53;;;8.41;;
68942;SDS011;60852;52.190;4.422;2023-06-10T04:56:29;8.26;;;8.23;;
68942;SDS011;60852;52.190;4.422;2023-06-10T04:58:56;8.32;;;8.31;;
68942;SDS011;60852;52.190;4.422;2023-06-10T05:01:22;8.28;;;8.28;;
68942;SDS011;60852;52.190;4.422;2023-06-10T05:03:47;8.29;;;8.29;;
68942;SDS011;60852;52.190;4.422;2023-06-10T05:06:13;8.34;;;8.34;;
68942;SDS011;60852;52.190;4.422;2023-06-10T05:08:38;8.54;;;8.50;;
68942;SDS011;60852;52.190;4.422;2023-06-10T05:11:04;8.71;;;8.53;;
68942;SDS011;60852;52.190;4.422;2023-06-10T05:13:29;8.65;;;8.60;;
68942;SDS011;60852;52.190;4.422;2023-06-10T05:15:54;8.95;;;8.95;;
68942;SDS011;60852;52.190;4.422;2023-06-10T05:18:20;9.06;;;9.06;;
68942;SDS011;60852;52.190;4.422;2023-06-10T05:20:46;9.21;;;9.20;;
68942;SDS011;60852;52.190;4.422;2023-06-10T05:23:11;8.81;;;8.79;;
68942;SDS011;60852;52.190;4.422;2023-06-10T05:25:37;9.14;;;9.14;;
68942;SDS011;60852;52.190;4.422;2023-06-10T05:28:02;9.22;;;9.20;;
68942;SDS011;60852;52.190;4.422;2023-06-10T05:30:28;8.94;;;8.91;;
68942;SDS011;60852;52.190;4.422;2023-06-10T05:32:54;9.20;;;9.15;;
68942;SDS011;60852;52.190;4.422;2023-06-10T05:35:21;9.36;;;9.34;;
68942;SDS011;60852;52.190;4.422;2023-06-10T05:37:46;9.25;;;9.23;;
68942;SDS011;60852;52.190;4.422;2023-06-10T05:40:12;9.29;;;9.29;;
68942;SDS011;60852;52.190;4.422;2023-06-10T05:42:37;9.64;;;9.64;;
68942;SDS011;60852;52.190;4.422;2023-06-10T05:45:03;9.74;;;9.66;;
68942;SDS011;60852;52.190;4.422;2023-06-10T05:47:28;9.84;;;9.68;;
68942;SDS011;60852;52.190;4.422;2023-06-10T05:49:54;9.97;;;9.96;;
68942;SDS011;60852;52.190;4.422;2023-06-10T05:52:20;9.86;;;9.86;;
68942;SDS011;60852;52.190;4.422;2023-06-10T05:54:45;9.86;;;9.86;;
68942;SDS011;60852;52.190;4.422;2023-06-10T05:57:11;9.44;;;9.44;;
68942;SDS011;60852;52.190;4.422;2023-06-10T05:59:36;9.92;;;9.90;;
68942;SDS011;60852;52.190;4.422;2023-06-10T06:02:02;9.84;;;9.83;;
68942;SDS011;60852;52.190;4.422;2023-06-10T06:04:28;10.08;;;10.08;;
68942;SDS011;60852;52.190;4.422;2023-06-10T06:06:53;9.98;;;9.98;;
68942;SDS011;60852;52.190;4.422;2023-06-10T06:09:19;9.84;;;9.84;;
68942;SDS011;60852;52.190;4.422;2023-06-10T06:11:44;10.51;;;10.41;;
68942;SDS011;60852;52.190;4.422;2023-06-10T06:14:10;10.00;;;9.96;;
68942;SDS011;60852;52.190;4.422;2023-06-10T06:16:35;10.62;;;10.62;;
68942;SDS011;60852;52.190;4.422;2023-06-10T06:19:00;9.83;;;9.82;;
68942;SDS011;60852;52.190;4.422;2023-06-10T06:21:26;9.94;;;9.92;;
68942;SDS011;60852;52.190;4.422;2023-06-10T06:23:51;10.68;;;10.65;;
68942;SDS011;60852;52.190;4.422;2023-06-10T06:26:17;10.64;;;10.63;;
68942;SDS011;60852;52.190;4.422;2023-06-10T06:28:42;10.53;;;10.51;;
68942;SDS011;60852;52.190;4.422;2023-06-10T06:31:08;10.80;;;10.75;;
68942;SDS011;60852;52.190;4.422;2023-06-10T06:33:33;11.25;;;11.24;;
68942;SDS011;60852;52.190;4.422;2023-06-10T06:35:59;11.20;;;11.18;;
68942;SDS011;60852;52.190;4.422;2023-06-10T06:38:27;11.85;;;11.83;;
68942;SDS011;60852;52.190;4.422;2023-06-10T06:40:53;12.85;;;12.84;;
68942;SDS011;60852;52.190;4.422;2023-06-10T06:43:19;11.91;;;11.89;;
68942;SDS011;60852;52.190;4.422;2023-06-10T06:45:44;11.94;;;11.89;;
68942;SDS011;60852;52.190;4.422;2023-06-10T06:48:10;11.24;;;11.24;;
68942;SDS011;60852;52.190;4.422;2023-06-10T06:50:36;12.59;;;12.59;;
68942;SDS011;60852;52.190;4.422;2023-06-10T06:53:02;12.88;;;12.88;;
68942;SDS011;60852;52.190;4.422;2023-06-10T06:55:28;11.95;;;11.95;;
68942;SDS011;60852;52.190;4.422;2023-06-10T06:57:54;13.28;;;13.28;;
68942;SDS011;60852;52.190;4.422;2023-06-10T07:00:19;12.35;;;12.34;;
68942;SDS011;60852;52.190;4.422;2023-06-10T07:02:45;11.01;;;11.01;;
68942;SDS011;60852;52.190;4.422;2023-06-10T07:05:10;11.29;;;11.29;;
68942;SDS011;60852;52.190;4.422;2023-06-10T07:07:36;11.36;;;11.34;;
68942;SDS011;60852;52.190;4.422;2023-06-10T07:10:01;11.80;;;11.79;;
68942;SDS011;60852;52.190;4.422;2023-06-10T07:12:27;11.80;;;11.74;;
68942;SDS011;60852;52.190;4.422;2023-06-10T07:14:52;11.92;;;11.86;;
68942;SDS011;60852;52.190;4.422;2023-06-10T07:17:18;12.62;;;12.53;;
68942;SDS011;60852;52.190;4.422;2023-06-10T07:19:43;12.37;;;12.35;;
68942;SDS011;60852;52.190;4.422;2023-06-10T07:22:09;13.01;;;12.99;;
68942;SDS011;60852;52.190;4.422;2023-06-10T07:24:35;12.81;;;12.81;;
68942;SDS011;60852;52.190;4.422;2023-06-10T07:27:00;12.00;;;12.00;;
68942;SDS011;60852;52.190;4.422;2023-06-10T07:29:26;11.87;;;11.87;;
68942;SDS011;60852;52.190;4.422;2023-06-10T07:31:51;11.74;;;11.74;;
68942;SDS011;60852;52.190;4.422;2023-06-10T07:34:18;12.12;;;12.12;;
68942;SDS011;60852;52.190;4.422;2023-06-10T07:36:44;11.72;;;11.72;;
68942;SDS011;60852;52.190;4.422;2023-06-10T07:39:09;12.53;;;12.53;;
68942;SDS011;60852;52.190;4.422;2023-06-10T07:41:35;11.51;;;11.50;;
68942;SDS011;60852;52.190;4.422;2023-06-10T07:44:00;11.28;;;11.25;;
68942;SDS011;60852;52.190;4.422;2023-06-10T07:46:26;10.74;;;10.72;;
68942;SDS011;60852;52.190;4.422;2023-06-10T07:48:53;10.63;;;10.60;;
68942;SDS011;60852;52.190;4.422;2023-06-10T07:51:20;10.51;;;10.51;;
68942;SDS011;60852;52.190;4.422;2023-06-10T07:53:46;10.28;;;10.28;;
68942;SDS011;60852;52.190;4.422;2023-06-10T07:56:12;11.05;;;11.05;;
68942;SDS011;60852;52.190;4.422;2023-06-10T07:58:37;10.66;;;10.65;;
68942;SDS011;60852;52.190;4.422;2023-06-10T08:01:03;11.03;;;10.81;;
68942;SDS011;60852;52.190;4.422;2023-06-10T08:03:28;10.94;;;10.91;;
68942;SDS011;60852;52.190;4.422;2023-06-10T08:05:54;9.83;;;9.83;;
68942;SDS011;60852;52.190;4.422;2023-06-10T08:08:19;10.00;;;10.00;;
68942;SDS011;60852;52.190;4.422;2023-06-10T08:10:45;9.82;;;9.82;;
68942;SDS011;60852;52.190;4.422;2023-06-10T08:13:10;9.72;;;9.72;;
68942;SDS011;60852;52.190;4.422;2023-06-10T08:15:36;9.53;;;9.53;;
68942;SDS011;60852;52.190;4.422;2023-06-10T08:18:01;9.96;;;9.96;;
68942;SDS011;60852;52.190;4.422;2023-06-10T08:20:27;10.27;;;10.27;;
68942;SDS011;60852;52.190;4.422;2023-06-10T08:22:52;10.28;;;10.28;;
68942;SDS011;60852;52.190;4.422;2023-06-10T08:25:17;10.86;;;10.86;;
68942;SDS011;60852;52.190;4.422;2023-06-10T08:27:43;10.03;;;10.03;;
68942;SDS011;60852;52.190;4.422;2023-06-10T08:30:09;11.41;;;11.39;;
68942;SDS011;60852;52.190;4.422;2023-06-10T08:32:36;10.82;;;10.82;;
68942;SDS011;60852;52.190;4.422;2023-06-10T08:35:01;10.55;;;10.55;;
68942;SDS011;60852;52.190;4.422;2023-06-10T08:37:28;11.09;;;11.09;;
68942;SDS011;60852;52.190;4.422;2023-06-10T08:39:53;10.85;;;10.85;;
68942;SDS011;60852;52.190;4.422;2023-06-10T08:42:22;10.20;;;10.20;;
68942;SDS011;60852;52.190;4.422;2023-06-10T08:45:01;10.64;;;10.64;;
68942;SDS011;60852;52.190;4.422;2023-06-10T08:47:29;10.61;;;10.61;;
68942;SDS011;60852;52.190;4.422;2023-06-10T08:50:02;11.08;;;11.08;;
68942;SDS011;60852;52.190;4.422;2023-06-10T08:52:29;10.80;;;10.80;;
68942;SDS011;60852;52.190;4.422;2023-06-10T08:58:06;10.20;;;10.20;;
68942;SDS011;60852;52.190;4.422;2023-06-10T09:00:32;10.06;;;10.06;;
68942;SDS011;60852;52.190;4.422;2023-06-10T09:03:00;9.70;;;9.70;;
68942;SDS011;60852;52.190;4.422;2023-06-10T09:05:28;9.64;;;9.64;;
68942;SDS011;60852;52.190;4.422;2023-06-10T09:07:56;10.05;;;10.05;;
68942;SDS011;60852;52.190;4.422;2023-06-10T09:10:22;9.70;;;9.70;;
68942;SDS011;60852;52.190;4.422;2023-06-10T09:12:48;10.91;;;10.91;;
68942;SDS011;60852;52.190;4.422;2023-06-10T09:15:13;10.26;;;10.26;;
68942;SDS011;60852;52.190;4.422;2023-06-10T09:17:39;9.79;;;9.79;;
68942;SDS011;60852;52.190;4.422;2023-06-10T09:20:08;9.73;;;9.73;;
68942;SDS011;60852;52.190;4.422;2023-06-10T09:22:35;10.13;;;10.13;;
68942;SDS011;60852;52.190;4.422;2023-06-10T09:25:08;10.10;;;10.10;;
68942;SDS011;60852;52.190;4.422;2023-06-10T09:27:45;9.90;;;9.90;;
68942;SDS011;60852;52.190;4.422;2023-06-10T09:32:54;9.84;;;9.84;;
68942;SDS011;60852;52.190;4.422;2023-06-10T09:35:22;9.98;;;9.98;;
68942;SDS011;60852;52.190;4.422;2023-06-10T09:37:54;9.37;;;9.37;;
68942;SDS011;60852;52.190;4.422;2023-06-10T09:40:21;9.47;;;9.47;;
68942;SDS011;60852;52.190;4.422;2023-06-10T09:42:51;9.37;;;9.37;;
68942;SDS011;60852;52.190;4.422;2023-06-10T09:45:20;9.81;;;9.81;;
68942;SDS011;60852;52.190;4.422;2023-06-10T09:47:46;9.44;;;9.43;;
68942;SDS011;60852;52.190;4.422;2023-06-10T09:50:12;9.47;;;9.47;;
68942;SDS011;60852;52.190;4.422;2023-06-10T09:52:38;9.41;;;9.41;;
68942;SDS011;60852;52.190;4.422;2023-06-10T09:55:04;9.34;;;9.34;;
68942;SDS011;60852;52.190;4.422;2023-06-10T09:57:34;9.49;;;9.49;;
68942;SDS011;60852;52.190;4.422;2023-06-10T10:00:10;8.96;;;8.96;;
68942;SDS011;60852;52.190;4.422;2023-06-10T10:02:46;9.03;;;9.03;;
68942;SDS011;60852;52.190;4.422;2023-06-10T10:05:15;8.82;;;8.82;;
68942;SDS011;60852;52.190;4.422;2023-06-10T10:07:43;9.10;;;9.10;;
68942;SDS011;60852;52.190;4.422;2023-06-10T10:10:10;8.71;;;8.71;;
68942;SDS011;60852;52.190;4.422;2023-06-10T10:12:38;8.31;;;8.31;;
68942;SDS011;60852;52.190;4.422;2023-06-10T10:15:05;8.75;;;8.75;;
68942;SDS011;60852;52.190;4.422;2023-06-10T10:17:46;8.58;;;8.58;;
68942;SDS011;60852;52.190;4.422;2023-06-10T10:20:17;8.61;;;8.61;;
68942;SDS011;60852;52.190;4.422;2023-06-10T10:22:47;8.54;;;8.54;;
68942;SDS011;60852;52.190;4.422;2023-06-10T10:25:20;8.33;;;8.33;;
68942;SDS011;60852;52.190;4.422;2023-06-10T10:27:57;8.62;;;8.62;;
68942;SDS011;60852;52.190;4.422;2023-06-10T10:30:28;8.65;;;8.65;;
68942;SDS011;60852;52.190;4.422;2023-06-10T10:32:58;8.29;;;8.29;;
68942;SDS011;60852;52.190;4.422;2023-06-10T10:35:30;8.35;;;8.35;;
68942;SDS011;60852;52.190;4.422;2023-06-10T10:37:59;8.62;;;8.62;;
68942;SDS011;60852;52.190;4.422;2023-06-10T10:40:25;8.45;;;8.45;;
68942;SDS011;60852;52.190;4.422;2023-06-10T10:42:55;8.76;;;8.76;;
68942;SDS011;60852;52.190;4.422;2023-06-10T10:45:23;7.86;;;7.86;;
68942;SDS011;60852;52.190;4.422;2023-06-10T10:47:52;8.93;;;8.93;;
68942;SDS011;60852;52.190;4.422;2023-06-10T10:50:20;8.64;;;8.64;;
68942;SDS011;60852;52.190;4.422;2023-06-10T10:52:53;8.16;;;8.16;;
68942;SDS011;60852;52.190;4.422;2023-06-10T10:55:21;8.62;;;8.62;;
68942;SDS011;60852;52.190;4.422;2023-06-10T10:58:08;8.66;;;8.66;;
68942;SDS011;60852;52.190;4.422;2023-06-10T11:00:35;8.20;;;8.20;;
68942;SDS011;60852;52.190;4.422;2023-06-10T11:05:46;8.56;;;8.56;;
68942;SDS011;60852;52.190;4.422;2023-06-10T11:10:57;8.76;;;8.76;;
68942;SDS011;60852;52.190;4.422;2023-06-10T11:13:23;9.12;;;9.12;;
68942;SDS011;60852;52.190;4.422;2023-06-10T11:15:51;9.54;;;9.54;;
68942;SDS011;60852;52.190;4.422;2023-06-10T11:18:25;8.21;;;8.21;;
68942;SDS011;60852;52.190;4.422;2023-06-10T11:20:53;10.10;;;10.10;;
68942;SDS011;60852;52.190;4.422;2023-06-10T11:31:27;8.43;;;8.43;;
68942;SDS011;60852;52.190;4.422;2023-06-10T11:34:04;8.92;;;8.92;;
68942;SDS011;60852;52.190;4.422;2023-06-10T11:36:32;10.34;;;10.34;;
68942;SDS011;60852;52.190;4.422;2023-06-10T11:39:03;8.87;;;8.87;;
68942;SDS011;60852;52.190;4.422;2023-06-10T11:41:30;8.31;;;8.31;;
68942;SDS011;60852;52.190;4.422;2023-06-10T11:44:05;9.41;;;9.41;;
68942;SDS011;60852;52.190;4.422;2023-06-10T11:46:36;8.25;;;8.25;;
68942;SDS011;60852;52.190;4.422;2023-06-10T11:49:02;8.37;;;8.37;;
68942;SDS011;60852;52.190;4.422;2023-06-10T11:51:34;8.34;;;8.34;;
68942;SDS011;60852;52.190;4.422;2023-06-10T11:54:02;8.56;;;8.56;;
68942;SDS011;60852;52.190;4.422;2023-06-10T11:56:28;8.57;;;8.57;;
68942;SDS011;60852;52.190;4.422;2023-06-10T11:58:56;8.64;;;8.64;;
68942;SDS011;60852;52.190;4.422;2023-06-10T12:01:29;8.42;;;8.42;;
68942;SDS011;60852;52.190;4.422;2023-06-10T12:04:06;8.26;;;8.26;;
68942;SDS011;60852;52.190;4.422;2023-06-10T12:06:43;8.00;;;8.00;;
68942;SDS011;60852;52.190;4.422;2023-06-10T12:09:18;8.26;;;8.26;;
68942;SDS011;60852;52.190;4.422;2023-06-10T12:11:48;8.57;;;8.57;;
68942;SDS011;60852;52.190;4.422;2023-06-10T12:17:15;8.11;;;8.11;;
68942;SDS011;60852;52.190;4.422;2023-06-10T12:19:41;8.00;;;8.00;;
68942;SDS011;60852;52.190;4.422;2023-06-10T12:22:06;8.29;;;8.29;;
68942;SDS011;60852;52.190;4.422;2023-06-10T12:24:32;8.49;;;8.49;;
68942;SDS011;60852;52.190;4.422;2023-06-10T12:26:57;8.02;;;8.02;;
68942;SDS011;60852;52.190;4.422;2023-06-10T12:29:24;8.27;;;8.27;;
68942;SDS011;60852;52.190;4.422;2023-06-10T12:34:38;8.63;;;8.63;;
68942;SDS011;60852;52.190;4.422;2023-06-10T12:37:13;8.42;;;8.42;;
68942;SDS011;60852;52.190;4.422;2023-06-10T12:39:39;8.02;;;8.02;;
68942;SDS011;60852;52.190;4.422;2023-06-10T12:42:06;8.22;;;8.22;;
68942;SDS011;60852;52.190;4.422;2023-06-10T12:44:35;8.64;;;8.64;;
68942;SDS011;60852;52.190;4.422;2023-06-10T12:47:08;8.62;;;8.62;;
68942;SDS011;60852;52.190;4.422;2023-06-10T12:49:35;8.11;;;8.11;;
68942;SDS011;60852;52.190;4.422;2023-06-10T12:52:02;8.43;;;8.42;;
68942;SDS011;60852;52.190;4.422;2023-06-10T12:54:28;8.43;;;8.43;;
68942;SDS011;60852;52.190;4.422;2023-06-10T12:56:54;8.03;;;8.03;;
68942;SDS011;60852;52.190;4.422;2023-06-10T12:59:19;8.12;;;8.12;;
68942;SDS011;60852;52.190;4.422;2023-06-10T13:01:49;7.79;;;7.79;;
68942;SDS011;60852;52.190;4.422;2023-06-10T13:04:18;8.09;;;8.09;;
68942;SDS011;60852;52.190;4.422;2023-06-10T13:06:45;8.15;;;8.15;;
68942;SDS011;60852;52.190;4.422;2023-06-10T13:09:12;8.28;;;8.28;;
68942;SDS011;60852;52.190;4.422;2023-06-10T13:11:38;7.92;;;7.92;;
68942;SDS011;60852;52.190;4.422;2023-06-10T13:14:04;8.40;;;8.40;;
68942;SDS011;60852;52.190;4.422;2023-06-10T13:16:31;8.47;;;8.47;;
68942;SDS011;60852;52.190;4.422;2023-06-10T13:18:57;8.23;;;8.23;;
68942;SDS011;60852;52.190;4.422;2023-06-10T13:21:22;8.39;;;8.39;;
68942;SDS011;60852;52.190;4.422;2023-06-10T13:23:48;8.26;;;8.26;;
68942;SDS011;60852;52.190;4.422;2023-06-10T13:26:14;8.37;;;8.37;;
68942;SDS011;60852;52.190;4.422;2023-06-10T13:28:42;8.25;;;8.25;;
68942;SDS011;60852;52.190;4.422;2023-06-10T13:31:08;8.47;;;8.47;;
68942;SDS011;60852;52.190;4.422;2023-06-10T13:33:34;8.31;;;8.31;;
68942;SDS011;60852;52.190;4.422;2023-06-10T13:35:59;8.26;;;8.26;;
68942;SDS011;60852;52.190;4.422;2023-06-10T13:38:25;7.78;;;7.78;;
68942;SDS011;60852;52.190;4.422;2023-06-10T13:40:50;8.03;;;8.03;;
68942;SDS011;60852;52.190;4.422;2023-06-10T13:43:16;8.17;;;8.17;;
68942;SDS011;60852;52.190;4.422;2023-06-10T13:45:42;7.96;;;7.96;;
68942;SDS011;60852;52.190;4.422;2023-06-10T13:48:07;8.17;;;8.17;;
68942;SDS011;60852;52.190;4.422;2023-06-10T13:50:33;8.19;;;8.19;;
68942;SDS011;60852;52.190;4.422;2023-06-10T13:52:59;7.93;;;7.93;;
68942;SDS011;60852;52.190;4.422;2023-06-10T13:55:24;7.84;;;7.84;;
68942;SDS011;60852;52.190;4.422;2023-06-10T13:57:50;7.59;;;7.59;;
68942;SDS011;60852;52.190;4.422;2023-06-10T14:00:15;7.75;;;7.75;;
68942;SDS011;60852;52.190;4.422;2023-06-10T14:02:41;7.82;;;7.82;;
68942;SDS011;60852;52.190;4.422;2023-06-10T14:05:07;7.85;;;7.85;;
68942;SDS011;60852;52.190;4.422;2023-06-10T14:07:33;7.21;;;7.21;;
68942;SDS011;60852;52.190;4.422;2023-06-10T14:09:59;7.66;;;7.66;;
68942;SDS011;60852;52.190;4.422;2023-06-10T14:12:25;7.82;;;7.82;;
68942;SDS011;60852;52.190;4.422;2023-06-10T14:14:50;7.61;;;7.61;;
68942;SDS011;60852;52.190;4.422;2023-06-10T14:17:16;7.24;;;7.24;;
68942;SDS011;60852;52.190;4.422;2023-06-10T14:19:41;7.86;;;7.86;;
68942;SDS011;60852;52.190;4.422;2023-06-10T14:22:07;7.45;;;7.45;;
68942;SDS011;60852;52.190;4.422;2023-06-10T14:24:33;7.87;;;7.87;;
68942;SDS011;60852;52.190;4.422;2023-06-10T14:27:00;7.75;;;7.75;;
68942;SDS011;60852;52.190;4.422;2023-06-10T14:29:25;7.44;;;7.44;;
68942;SDS011;60852;52.190;4.422;2023-06-10T14:31:54;7.80;;;7.80;;
68942;SDS011;60852;52.190;4.422;2023-06-10T14:34:20;7.37;;;7.37;;
68942;SDS011;60852;52.190;4.422;2023-06-10T14:36:45;8.02;;;8.02;;
68942;SDS011;60852;52.190;4.422;2023-06-10T14:39:11;7.55;;;7.55;;
68942;SDS011;60852;52.190;4.422;2023-06-10T14:41:36;7.50;;;7.50;;
68942;SDS011;60852;52.190;4.422;2023-06-10T14:44:02;7.75;;;7.75;;
68942;SDS011;60852;52.190;4.422;2023-06-10T14:46:28;7.78;;;7.78;;
68942;SDS011;60852;52.190;4.422;2023-06-10T14:48:53;7.44;;;7.44;;
68942;SDS011;60852;52.190;4.422;2023-06-10T14:51:19;7.27;;;7.27;;
68942;SDS011;60852;52.190;4.422;2023-06-10T14:53:46;7.68;;;7.68;;
68942;SDS011;60852;52.190;4.422;2023-06-10T14:56:11;7.06;;;7.06;;
68942;SDS011;60852;52.190;4.422;2023-06-10T14:58:37;7.62;;;7.62;;
68942;SDS011;60852;52.190;4.422;2023-06-10T15:01:03;7.20;;;7.20;;
68942;SDS011;60852;52.190;4.422;2023-06-10T15:03:28;7.34;;;7.34;;
68942;SDS011;60852;52.190;4.422;2023-06-10T15:05:54;7.90;;;7.90;;
68942;SDS011;60852;52.190;4.422;2023-06-10T15:08:19;7.48;;;7.48;;
68942;SDS011;60852;52.190;4.422;2023-06-10T15:10:45;7.13;;;7.13;;